Address 0xa93edac7e6901e042835d66ed5ca98bf7fe42c22

 
Txn Hash
Block
From
To
Value [Txn Fee]
0xff430d6cd98316c772fe29e4c5734f81c05e5fed2273de85211bbfcd5027174752128132021-02-26 10:48:461 hr 23 mins ago0xa93edac7e6901e042835d66ed5ca98bf7fe42c22OUT 0x9d3aa54172d49659ee9948d1b7d602989d39ffa60 BNB0.00230257
0x2bd61e259f38c0829d14eb4111390174faa7f276865bbf33279cd359a7ae679852128032021-02-26 10:48:161 hr 23 mins ago0xa93edac7e6901e042835d66ed5ca98bf7fe42c22OUT 0xf7069e41c57ecc5f122093811d8c75bdb5f7c14e0 BNB0.0016392
0x6d1cc350a1c4fd583cf5693e4a23ce00e15ce4a74a218945683c6bd39b149bd952127882021-02-26 10:47:311 hr 24 mins ago0xa93edac7e6901e042835d66ed5ca98bf7fe42c22OUT PancakeSwap: Router2.675859926746952 BNB0.0019803
0x76c62682feaffe8e6c73dddf4aaa5fb9484790274baf204e99ccde2d50f8f9e152127752021-02-26 10:46:521 hr 25 mins ago0xa93edac7e6901e042835d66ed5ca98bf7fe42c22OUT PancakeSwap: Router1.403520349091419 BNB0.00146795
0xc995e67403b12b9f44f197d925fb0ab62c754e52ec6142b90f7b012d6bffb12d52127322021-02-26 10:44:431 hr 27 mins ago0xa93edac7e6901e042835d66ed5ca98bf7fe42c22OUT PancakeSwap: Router4.271950210840944 BNB0.00184278
0x32a79261ae4ce3d2e9695a00d551f6bb1a4352148c6691c2346e8c9c70ca9afe52122202021-02-26 10:19:071 hr 53 mins ago0xb1256d6b31e4ae87da1d56e5890c66be7f1c038e IN 0xa93edac7e6901e042835d66ed5ca98bf7fe42c227.9992 BNB0.00021
0x0b1f1b61382f33ed005761c1fb29c5fff09f4c9402ffa23feac012902e58716452119462021-02-26 10:05:122 hrs 6 mins ago0xa93edac7e6901e042835d66ed5ca98bf7fe42c22OUT 0x8ad9662f33ea75e6abb581de62eec52b43436c640 BNB0.00109487
0x3a2a1b0130ed00325f9c956f1a8697af285ded7780f71a221c1e4aef97daa1f152119172021-02-26 10:03:452 hrs 8 mins ago0xa93edac7e6901e042835d66ed5ca98bf7fe42c22OUT PancakeSwap: Router0 BNB0.00159101
0xd870844955fb48a3694b5d382cfbba39745b8acaa885ba3b0f07b283b0e6a53d52118972021-02-26 10:02:452 hrs 9 mins ago0xa93edac7e6901e042835d66ed5ca98bf7fe42c22OUT 0x61c7305c1588186e31ff9aa2f23c5354427aaf580 BNB0.0009099
0x2d57c85f2d90be6e82089efd3b5158a512591233ee3f07b2a83fdffdd93d7be552118882021-02-26 10:02:182 hrs 9 mins ago0xa93edac7e6901e042835d66ed5ca98bf7fe42c22OUT 0x8ad9662f33ea75e6abb581de62eec52b43436c640 BNB0.00094235
0x0001c632bbcaed71185e55faa0f4b5f6e43dd8699faafe720a20310b8124b09152102012021-02-26 8:37:563 hrs 34 mins ago0xa93edac7e6901e042835d66ed5ca98bf7fe42c22OUT 0xe0b473c0dd6d7fea5b395c3ce7ffd4fef0ab43730 BNB0.00433785
0xe25453ad9181ba932ce644b2ab999f8ad865be0cdcbd84b07e8e679a804d1a8051965402021-02-25 21:12:3414 hrs 59 mins ago0xa93edac7e6901e042835d66ed5ca98bf7fe42c22OUT PancakeSwap: Router1.552773028902251 BNB0.00161795
0x01615b81b3162c09d87f3633e59863b76362979373c9100b88cb45cd3396b1c651943552021-02-25 19:23:1816 hrs 48 mins ago0xa93edac7e6901e042835d66ed5ca98bf7fe42c22OUT PancakeSwap: Router0 BNB0.00111586
0x7403d3e5b7465f141d8dc2ee0c3687e9e0f781c7697524ac24bb82165b8a212851861892021-02-25 12:32:3923 hrs 39 mins ago0xa93edac7e6901e042835d66ed5ca98bf7fe42c22OUT 0xe0b473c0dd6d7fea5b395c3ce7ffd4fef0ab43730 BNB0.00504085
0xe67ae177fd347bff57bd6da0f9c81eaaad21d22546ca16b413ecfd39c2cba0bd51861832021-02-25 12:32:2123 hrs 39 mins ago0xa93edac7e6901e042835d66ed5ca98bf7fe42c22OUT 0xe0b473c0dd6d7fea5b395c3ce7ffd4fef0ab43730 BNB0.00506782
0xd639076111ce7380f393b99f8c0d667640c1c107e821b1389c784f193f5e653351840942021-02-25 10:47:541 day 1 hr ago0xa93edac7e6901e042835d66ed5ca98bf7fe42c22OUT 0x8ad9662f33ea75e6abb581de62eec52b43436c640 BNB0.00109499
0x2338c8798fd4a64ceac2fe6d68d48e71bfd8d0dea2d193f7ee8dd517794b379f51840832021-02-25 10:47:211 day 1 hr ago0xa93edac7e6901e042835d66ed5ca98bf7fe42c22OUT PancakeSwap: Router0 BNB0.00159101
0xc2bcf07e44787246ebf58084b0bf934b0522f8aae8da33f827e383e03bd94fbb51840692021-02-25 10:46:391 day 1 hr ago0xa93edac7e6901e042835d66ed5ca98bf7fe42c22OUT 0x8ad9662f33ea75e6abb581de62eec52b43436c640 BNB0.00079235
0xe26df3df21e6dc377e5b704c871fa8581b67dcd4bcf57f6f67a190bfff1f4f7b51840502021-02-25 10:45:421 day 1 hr ago0xa93edac7e6901e042835d66ed5ca98bf7fe42c22OUT 0x61c7305c1588186e31ff9aa2f23c5354427aaf580 BNB0.0009099
0xfe721991649304d5808368c838422d4d412699cec061ce9a9a7c0b60d2d5dae351688762021-02-24 22:04:571 day 14 hrs ago0xa93edac7e6901e042835d66ed5ca98bf7fe42c22OUT 0xe0b473c0dd6d7fea5b395c3ce7ffd4fef0ab43730 BNB0.00433785
0xd067a059b437a0f1630f9ccf5609e7bd2c4a0605efcbefe19d0d9cbd58d1532651688352021-02-24 22:02:541 day 14 hrs ago0xa93edac7e6901e042835d66ed5ca98bf7fe42c22OUT 0xe0b473c0dd6d7fea5b395c3ce7ffd4fef0ab43730 BNB0.00593631
0xf5dd93d1b5d0a027a5e6e6b7a09bd3bdd09b0dcf418538ab28dea066a5174ae751688262021-02-24 22:02:271 day 14 hrs ago0xa93edac7e6901e042835d66ed5ca98bf7fe42c22OUT 0xf7069e41c57ecc5f122093811d8c75bdb5f7c14e0 BNB0.0016392
0x1d49033f942ac978a82b9ddbf03ca90cb38fd89a20d57743d08c18a967fdfc8f51687082021-02-24 21:56:331 day 14 hrs ago0xa93edac7e6901e042835d66ed5ca98bf7fe42c22OUT PancakeSwap: Router0 BNB0.00126531
0x6846c9c3a7ba86454fcb94fc5f8b1d3a41283a7e9b0e9bf72bfc936c1d58090d51686912021-02-24 21:55:421 day 14 hrs ago0xa93edac7e6901e042835d66ed5ca98bf7fe42c22OUT PancakeSwap: Router0 BNB0.00131478
0x7edaa51619b95c53298bcf6620e113cdec7e44347570cb6210327af7fec3a32851683682021-02-24 21:39:331 day 14 hrs ago0xa93edac7e6901e042835d66ed5ca98bf7fe42c22OUT PancakeSwap: Router1.201820708437971 BNB0.00035813
[ Download CSV Export 
Latest 7 internal transactions
Parent Txn Hash Block From To Value
0x76c62682feaffe8e6c73dddf4aaa5fb9484790274baf204e99ccde2d50f8f9e152127752021-02-26 10:46:521 hr 25 mins ago PancakeSwap: Router0xa93edac7e6901e042835d66ed5ca98bf7fe42c220.035633798258861396 BNB
0xc995e67403b12b9f44f197d925fb0ab62c754e52ec6142b90f7b012d6bffb12d52127322021-02-26 10:44:431 hr 27 mins ago PancakeSwap: Router0xa93edac7e6901e042835d66ed5ca98bf7fe42c220.109144642161265641 BNB
0xe25453ad9181ba932ce644b2ab999f8ad865be0cdcbd84b07e8e679a804d1a8051965402021-02-25 21:12:3414 hrs 59 mins ago PancakeSwap: Router0xa93edac7e6901e042835d66ed5ca98bf7fe42c220.039390449288834676 BNB
0xe06d0c9d9017b7d65e29dc388a53a57c73a4c6ad6721520d5e401debfec5c14c51683242021-02-24 21:37:211 day 14 hrs ago PancakeSwap: Router0xa93edac7e6901e042835d66ed5ca98bf7fe42c220.010775824688212325 BNB
0x5a756cd5c0030cac70b5dcd536597c250763664071034a1bf7626192ef9eea2650733402021-02-21 13:37:594 days 22 hrs ago PancakeSwap: Router0xa93edac7e6901e042835d66ed5ca98bf7fe42c220.000008879670298644 BNB
0x7b209c73fe087a0f9c4f0d58ed7b9b27879a8d33138644776fbaa828fcdaa95a50095112021-02-19 6:20:517 days 5 hrs ago PancakeSwap: Router0xa93edac7e6901e042835d66ed5ca98bf7fe42c220.025590091099656456 BNB
0x61ec2c773bedd4419ad852e02fecb6a8bd95bc4316f8be6330db5d951db5257d49992562021-02-18 21:46:247 days 14 hrs ago PancakeSwap: Router0xa93edac7e6901e042835d66ed5ca98bf7fe42c220.005902605335393649 BNB
[ Download CSV Export 
Loading

Contract Name:
0 BNB

Compiler Version
0

Optimization Enabled:
0 BNB

Other Settings:
-NA-
Block Transaction Gas Used Reward
Age Block Fee Address BC Fee Address Voting Power Jailed Incoming
Block Uncle Number Difficulty Gas Used Reward
Loading
Loading
Make sure to use the "Vote Down" button for any spammy posts, and the "Vote Up" for interesting conversations.